Coral Princess — ZCDF4 — position and weather

sailwx.info

Track history (hours):
 
Tides and Currents Weather Stations Pressure Air Temp Water Temp Dewpoint Dewpoint Depression Visibility Wind Speed Wind Dir Waves Ship Positions

Coral Princess

Operator: Princess Cruises

Last reported at 2019-May-20 16:31 UTC. Time now 2019-May-20 16:32 UTC.
Position N 58°38' W 136°07'.

Type: Passenger vessel. MMSI: 310376000.

Date/timePositionNaut miles runAvg speedWind from/ knotsBaromVisibWave heightAir tempDewpointWater temp
2019-May-20 16:31N 58°38' W 136°07'918.1
2019-May-20 16:00N 58°29' W 136°03'5 9.9
2019-May-20 15:30N 58°25' W 135°57'510.2
2019-May-20 15:01N 58°21' W 136°02'3017.8
2019-May-20 13:19N 58°07' W 136°52'21 7.6
2019-May-20 10:31N 58°18' W 136°18'220.6
2019-May-20 10:26N 58°18' W 136°15'920.9
2019-May-20 10:00N 58°19' W 135°58'1120.8
2019-May-20 09:30N 58°17' W 135°38'  
2019-May-17 07:33N 54°19' W 131°06'112.3
2019-May-17 07:29N 54°18' W 131°05'611.9
2019-May-17 07:00N 54°13' W 131°02'612.8
2019-May-17 06:31N 54°07' W 131°00'713.1
2019-May-17 05:59N 53°60' W 130°58'713.7
2019-May-17 05:27N 53°53' W 130°56'813.6
2019-May-17 04:53N 53°45' W 130°54'1814.1
2019-May-17 03:34N 53°27' W 130°48'11013.0
2019-May-16 19:07N 51°53' W 129°13'213.0
2019-May-16 18:59N 51°52' W 129°11'712.9
2019-May-16 18:26N 51°46' W 129°04'512.9
2019-May-16 18:00N 51°42' W 128°59'612.8
2019-May-16 17:30N 51°36' W 128°53'712.8
2019-May-16 16:56N 51°31' W 128°46'613.1
2019-May-16 16:28N 51°26' W 128°40'613.0
2019-May-16 16:00N 51°22' W 128°33'713.2
2019-May-16 15:30N 51°18' W 128°25'713.3
2019-May-16 15:00N 51°13' W 128°17'714.2
2019-May-16 14:30N 51°09' W 128°08'714.3
2019-May-16 14:00N 51°04' W 127°59'713.2
2019-May-16 13:30N 51°00' W 127°51'611.8
2019-May-16 13:00N 50°56' W 127°44'713.2
2019-May-16 12:30N 50°53' W 127°35'713.5
2019-May-16 12:00N 50°50' W 127°26'713.5
2019-May-16 11:30N 50°47' W 127°16'713.4
2019-May-16 11:00N 50°44' W 127°06'914.4
2019-May-16 10:21N 50°41' W 126°52'5814.0
2019-May-16 06:14N 50°20' W 125°27'313.1
2019-May-16 05:58N 50°17' W 125°25'816.5
2019-May-16 05:30N 50°10' W 125°22'713.0
2019-May-16 05:00N 50°05' W 125°16'714.3
2019-May-16 04:30N 49°58' W 125°11'1121.5
2019-May-16 04:00N 49°51' W 124°58'1121.8
2019-May-16 03:31N 49°45' W 124°45'1221.7
2019-May-16 02:57N 49°37' W 124°30'1521.1
2019-May-16 02:14N 49°29' W 124°10'521.5
2019-May-16 02:00N 49°27' W 124°03'1121.7
2019-May-16 01:30N 49°23' W 123°48'1020.4
2019-May-16 01:01N 49°20' W 123°33'918.2
2019-May-16 00:31N 49°19' W 123°19'815.0
2019-May-16 00:00N 49°19' W 123°07'1 2.7
2019-May-15 23:30N 49°17' W 123°06'0 0.0
2019-May-15 23:00N 49°17' W 123°06'0 0.0
2019-May-15 22:30N 49°17' W 123°06'0 0.0
2019-May-15 22:00N 49°17' W 123°06'0 0.0
2019-May-15 21:30N 49°17' W 123°06'0 0.0
2019-May-15 21:00N 49°17' W 123°06'0 0.0
2019-May-15 20:30N 49°17' W 123°06'0 0.0
2019-May-15 20:00N 49°17' W 123°06'0 0.0
2019-May-15 19:30N 49°17' W 123°06'0 0.0
2019-May-15 19:00N 49°17' W 123°06'0 0.0
2019-May-15 18:30N 49°17' W 123°06'0 0.0
2019-May-15 18:00N 49°17' W 123°06'0 0.0
2019-May-15 17:30N 49°17' W 123°06'0 0.0
2019-May-15 17:00N 49°17' W 123°06'0 0.0
2019-May-15 16:30N 49°17' W 123°06'0 0.0
2019-May-15 16:00N 49°17' W 123°06'0 0.0
2019-May-15 15:30N 49°17' W 123°06'0 0.0
2019-May-15 14:57N 49°17' W 123°06'0 0.0
2019-May-15 14:30N 49°17' W 123°06'0 0.0
2019-May-15 13:59N 49°17' W 123°06'0 1.0
2019-May-15 13:30N 49°18' W 123°06'4 7.7
2019-May-15 13:00N 49°19' W 123°12'510.3
2019-May-15 12:30N 49°18' W 123°20'611.6
2019-May-15 12:00N 49°19' W 123°29'713.7
2019-May-15 11:30N 49°19' W 123°39'611.6
2019-May-15 11:00N 49°20' W 123°48'611.3
2019-May-15 10:30N 49°21' W 123°57'611.0
2019-May-15 10:00N 49°22' W 124°05'611.4
2019-May-15 09:30N 49°24' W 124°13'611.2
2019-May-15 09:00N 49°26' W 124°21'611.4
2019-May-15 08:30N 49°29' W 124°28'611.3
2019-May-15 07:59N 49°33' W 124°35'510.8
2019-May-15 07:30N 49°37' W 124°40'611.2
2019-May-15 07:00N 49°42' W 124°46'611.1
2019-May-15 06:30N 49°46' W 124°51'611.2
2019-May-15 06:00N 49°50' W 124°57'611.7
2019-May-15 05:30N 49°54' W 125°04'510.8
2019-May-15 05:00N 49°58' W 125°10'713.2
2019-May-15 04:30N 50°03' W 125°15'612.7
2019-May-15 04:00N 50°08' W 125°21'611.1
2019-May-15 03:28N 50°14' W 125°23'510.2
2019-May-15 03:00N 50°18' W 125°25'1410.6
2019-May-15 01:40N 50°22' W 125°47'913.0
2019-May-15 01:00N 50°24' W 126°00'3016.2 100 / 121011.5 5.4 9.7 8.0 7.0
2019-May-14 23:06N 50°36' W 126°44'317.0
2019-May-14 22:55N 50°38' W 126°48'717.4
2019-May-14 22:31N 50°42' W 126°57'917.2
2019-May-14 22:00N 50°45' W 127°10'917.4
2019-May-14 21:30N 50°49' W 127°22'816.7
2019-May-14 21:00N 50°52' W 127°35'816.5
2019-May-14 20:30N 50°58' W 127°45'510.6
2019-May-14 20:00N 51°01' W 127°51'5 9.2
2019-May-14 19:30N 51°04' W 127°57'713.0
2019-May-14 19:00N 51°08' W 128°05'714.1
2019-May-14 18:30N 51°12' W 128°14'714.6
2019-May-14 18:00N 51°17' W 128°23'714.6
2019-May-14 17:30N 51°21' W 128°32'917.6
2019-May-14 17:00N 51°27' W 128°42'918.3
2019-May-14 16:30N 51°35' W 128°51'918.2
2019-May-14 16:00N 51°42' W 128°59'1218.0
2019-May-14 15:21N 51°52' W 129°10'3113.0
2019-May-14 13:00N 52°18' W 129°36'7022.5 130 / 181011.310.8 9.0 4.5 9.0
2019-May-14 09:53N 53°17' W 130°38'718.9
2019-May-14 09:30N 53°23' W 130°44'1018.1
2019-May-14 08:58N 53°32' W 130°49'818.3
2019-May-14 08:30N 53°41' W 130°52'917.9
2019-May-14 08:00N 53°49' W 130°55'917.7
2019-May-14 07:30N 53°58' W 130°58'917.8
2019-May-14 07:00N 54°07' W 131°00'918.3
2019-May-14 06:31N 54°16' W 131°03'918.7
2019-May-14 06:00N 54°24' W 131°10'1018.7
2019-May-14 05:29N 54°33' W 131°17'918.1
2019-May-14 05:00N 54°42' W 131°15'918.5
2019-May-14 04:30N 54°51' W 131°10'58 4.0
2019-May-13 14:00N 55°36' W 132°12'21115.2 130 / 81013.010.8 8.5 2.6 7.0
2019-May-13 00:05N 58°17' W 136°22'318.4
2019-May-12 23:57N 58°18' W 136°18'817.4
2019-May-12 23:30N 58°20' W 136°04'613.0
2019-May-12 23:01N 58°26' W 135°59'612.9
2019-May-12 22:30N 58°32' W 136°04'816.6
2019-May-12 22:01N 58°41' W 136°06'816.4
2019-May-12 21:30N 58°46' W 136°18'917.4
2019-May-12 21:00N 58°51' W 136°32'4 0.9
2019-May-12 16:29N 58°52' W 136°40'815.6
2019-May-12 16:00N 58°48' W 136°27'815.9
2019-May-12 15:30N 58°43' W 136°15'714.9
2019-May-12 15:00N 58°38' W 136°06'713.8
2019-May-12 14:30N 58°31' W 136°03'612.9
2019-May-12 14:00N 58°25' W 135°58'5 9.9
2019-May-12 13:30N 58°20' W 135°56'612.0
2019-May-12 13:00N 58°18' W 135°45'1163.6
2019-May-12 13:00N 58°18' W 135°48'715.2 250 / 101018.410.8 7.8 0.812.0
2019-May-12 12:30N 58°16' W 135°35'612.5
2019-May-12 12:00N 58°13' W 135°24'712.0
2019-May-12 11:25N 58°11' W 135°11'  
Track history (hours):
 
Tides and Currents Weather Stations Pressure Air Temp Water Temp Dewpoint Dewpoint Depression Visibility Wind Speed Wind Dir Waves Ship Positions

Coral Princess

Operator: Princess Cruises

Last reported at 2019-May-20 16:31 UTC. Time now 2019-May-20 16:32 UTC.
Position N 58°38' W 136°07'.

Type: Passenger vessel. MMSI: 310376000.

Date/timePositionNaut miles runAvg speedWind from/ knotsBaromVisibWave heightAir tempDewpointWater temp
2019-May-20 16:31N 58°38' W 136°07'918.1
2019-May-20 16:00N 58°29' W 136°03'5 9.9
2019-May-20 15:30N 58°25' W 135°57'510.2
2019-May-20 15:01N 58°21' W 136°02'3017.8
2019-May-20 13:19N 58°07' W 136°52'21 7.6
2019-May-20 10:31N 58°18' W 136°18'220.6
2019-May-20 10:26N 58°18' W 136°15'920.9
2019-May-20 10:00N 58°19' W 135°58'1120.8
2019-May-20 09:30N 58°17' W 135°38'  
2019-May-17 07:33N 54°19' W 131°06'112.3
2019-May-17 07:29N 54°18' W 131°05'611.9
2019-May-17 07:00N 54°13' W 131°02'612.8
2019-May-17 06:31N 54°07' W 131°00'713.1
2019-May-17 05:59N 53°60' W 130°58'713.7
2019-May-17 05:27N 53°53' W 130°56'813.6
2019-May-17 04:53N 53°45' W 130°54'1814.1
2019-May-17 03:34N 53°27' W 130°48'11013.0
2019-May-16 19:07N 51°53' W 129°13'213.0
2019-May-16 18:59N 51°52' W 129°11'712.9
2019-May-16 18:26N 51°46' W 129°04'512.9
2019-May-16 18:00N 51°42' W 128°59'612.8
2019-May-16 17:30N 51°36' W 128°53'712.8
2019-May-16 16:56N 51°31' W 128°46'613.1
2019-May-16 16:28N 51°26' W 128°40'613.0
2019-May-16 16:00N 51°22' W 128°33'713.2
2019-May-16 15:30N 51°18' W 128°25'713.3
2019-May-16 15:00N 51°13' W 128°17'714.2
2019-May-16 14:30N 51°09' W 128°08'714.3
2019-May-16 14:00N 51°04' W 127°59'713.2
2019-May-16 13:30N 51°00' W 127°51'611.8
2019-May-16 13:00N 50°56' W 127°44'713.2
2019-May-16 12:30N 50°53' W 127°35'713.5
2019-May-16 12:00N 50°50' W 127°26'713.5
2019-May-16 11:30N 50°47' W 127°16'713.4
2019-May-16 11:00N 50°44' W 127°06'914.4
2019-May-16 10:21N 50°41' W 126°52'5814.0
2019-May-16 06:14N 50°20' W 125°27'313.1
2019-May-16 05:58N 50°17' W 125°25'816.5
2019-May-16 05:30N 50°10' W 125°22'713.0
2019-May-16 05:00N 50°05' W 125°16'714.3
2019-May-16 04:30N 49°58' W 125°11'1121.5
2019-May-16 04:00N 49°51' W 124°58'1121.8
2019-May-16 03:31N 49°45' W 124°45'1221.7
2019-May-16 02:57N 49°37' W 124°30'1521.1
2019-May-16 02:14N 49°29' W 124°10'521.5
2019-May-16 02:00N 49°27' W 124°03'1121.7
2019-May-16 01:30N 49°23' W 123°48'1020.4
2019-May-16 01:01N 49°20' W 123°33'918.2
2019-May-16 00:31N 49°19' W 123°19'815.0
2019-May-16 00:00N 49°19' W 123°07'1 2.7
2019-May-15 23:30N 49°17' W 123°06'0 0.0
2019-May-15 23:00N 49°17' W 123°06'0 0.0
2019-May-15 22:30N 49°17' W 123°06'0 0.0
2019-May-15 22:00N 49°17' W 123°06'0 0.0
2019-May-15 21:30N 49°17' W 123°06'0 0.0
2019-May-15 21:00N 49°17' W 123°06'0 0.0
2019-May-15 20:30N 49°17' W 123°06'0 0.0
2019-May-15 20:00N 49°17' W 123°06'0 0.0
2019-May-15 19:30N 49°17' W 123°06'0 0.0
2019-May-15 19:00N 49°17' W 123°06'0 0.0
2019-May-15 18:30N 49°17' W 123°06'0 0.0
2019-May-15 18:00N 49°17' W 123°06'0 0.0
2019-May-15 17:30N 49°17' W 123°06'0 0.0
2019-May-15 17:00N 49°17' W 123°06'0 0.0
2019-May-15 16:30N 49°17' W 123°06'0 0.0
2019-May-15 16:00N 49°17' W 123°06'0 0.0
2019-May-15 15:30N 49°17' W 123°06'0 0.0
2019-May-15 14:57N 49°17' W 123°06'0 0.0
2019-May-15 14:30N 49°17' W 123°06'0 0.0
2019-May-15 13:59N 49°17' W 123°06'0 1.0
2019-May-15 13:30N 49°18' W 123°06'4 7.7
2019-May-15 13:00N 49°19' W 123°12'510.3
2019-May-15 12:30N 49°18' W 123°20'611.6
2019-May-15 12:00N 49°19' W 123°29'713.7
2019-May-15 11:30N 49°19' W 123°39'611.6
2019-May-15 11:00N 49°20' W 123°48'611.3
2019-May-15 10:30N 49°21' W 123°57'611.0
2019-May-15 10:00N 49°22' W 124°05'611.4
2019-May-15 09:30N 49°24' W 124°13'611.2
2019-May-15 09:00N 49°26' W 124°21'611.4
2019-May-15 08:30N 49°29' W 124°28'611.3
2019-May-15 07:59N 49°33' W 124°35'510.8
2019-May-15 07:30N 49°37' W 124°40'611.2
2019-May-15 07:00N 49°42' W 124°46'611.1
2019-May-15 06:30N 49°46' W 124°51'611.2
2019-May-15 06:00N 49°50' W 124°57'611.7
2019-May-15 05:30N 49°54' W 125°04'510.8
2019-May-15 05:00N 49°58' W 125°10'713.2
2019-May-15 04:30N 50°03' W 125°15'612.7
2019-May-15 04:00N 50°08' W 125°21'611.1
2019-May-15 03:28N 50°14' W 125°23'510.2
2019-May-15 03:00N 50°18' W 125°25'1410.6
2019-May-15 01:40N 50°22' W 125°47'913.0
2019-May-15 01:00N 50°24' W 126°00'3016.2 100 / 121011.5 5.4 9.7 8.0 7.0
2019-May-14 23:06N 50°36' W 126°44'317.0
2019-May-14 22:55N 50°38' W 126°48'717.4
2019-May-14 22:31N 50°42' W 126°57'917.2
2019-May-14 22:00N 50°45' W 127°10'917.4
2019-May-14 21:30N 50°49' W 127°22'816.7
2019-May-14 21:00N 50°52' W 127°35'816.5
2019-May-14 20:30N 50°58' W 127°45'510.6
2019-May-14 20:00N 51°01' W 127°51'5 9.2
2019-May-14 19:30N 51°04' W 127°57'713.0
2019-May-14 19:00N 51°08' W 128°05'714.1
2019-May-14 18:30N 51°12' W 128°14'714.6
2019-May-14 18:00N 51°17' W 128°23'714.6
2019-May-14 17:30N 51°21' W 128°32'917.6
2019-May-14 17:00N 51°27' W 128°42'918.3
2019-May-14 16:30N 51°35' W 128°51'918.2
2019-May-14 16:00N 51°42' W 128°59'1218.0
2019-May-14 15:21N 51°52' W 129°10'3113.0
2019-May-14 13:00N 52°18' W 129°36'7022.5 130 / 181011.310.8 9.0 4.5 9.0
2019-May-14 09:53N 53°17' W 130°38'718.9
2019-May-14 09:30N 53°23' W 130°44'1018.1
2019-May-14 08:58N 53°32' W 130°49'818.3
2019-May-14 08:30N 53°41' W 130°52'917.9
2019-May-14 08:00N 53°49' W 130°55'917.7
2019-May-14 07:30N 53°58' W 130°58'917.8
2019-May-14 07:00N 54°07' W 131°00'918.3
2019-May-14 06:31N 54°16' W 131°03'918.7
2019-May-14 06:00N 54°24' W 131°10'1018.7
2019-May-14 05:29N 54°33' W 131°17'918.1
2019-May-14 05:00N 54°42' W 131°15'918.5
2019-May-14 04:30N 54°51' W 131°10'58 4.0
2019-May-13 14:00N 55°36' W 132°12'21115.2 130 / 81013.010.8 8.5 2.6 7.0
2019-May-13 00:05N 58°17' W 136°22'318.4
2019-May-12 23:57N 58°18' W 136°18'817.4
2019-May-12 23:30N 58°20' W 136°04'613.0
2019-May-12 23:01N 58°26' W 135°59'612.9
2019-May-12 22:30N 58°32' W 136°04'816.6
2019-May-12 22:01N 58°41' W 136°06'816.4
2019-May-12 21:30N 58°46' W 136°18'917.4
2019-May-12 21:00N 58°51' W 136°32'4 0.9
2019-May-12 16:29N 58°52' W 136°40'815.6
2019-May-12 16:00N 58°48' W 136°27'815.9
2019-May-12 15:30N 58°43' W 136°15'714.9
2019-May-12 15:00N 58°38' W 136°06'713.8
2019-May-12 14:30N 58°31' W 136°03'612.9
2019-May-12 14:00N 58°25' W 135°58'5 9.9
2019-May-12 13:30N 58°20' W 135°56'612.0
2019-May-12 13:00N 58°18' W 135°45'1163.6
2019-May-12 13:00N 58°18' W 135°48'715.2 250 / 101018.410.8 7.8 0.812.0
2019-May-12 12:30N 58°16' W 135°35'612.5
2019-May-12 12:00N 58°13' W 135°24'712.0
2019-May-12 11:25N 58°11' W 135°11'  

Dump ship's entire track history